Time;durP1;ratioP1;P1;durP2;ratioP2;P2;SDS_P1;SDS_P2;PMS_P1;PMS_P2;Temp;Humidity;BMP_temperature;BMP_pressure;BME280_temperature;BME280_humidity;BME280_pressure;Samples;Min_cycle;Max_cycle;Signal;HPM_P1;HPM_P2
2023/03/26 00:01:14;;;;;;;20.90;10.00;;;;;;;8.03;65.73;98051.44;109323;1247;96053;-74
2023/03/26 00:03:43;;;;;;;24.00;10.20;;;;;;;8.05;65.88;98050.56;109275;1248;107541;-73
2023/03/26 00:06:13;;;;;;;21.50;9.30;;;;;;;8.09;65.81;98048.69;109238;1248;95703;-73
2023/03/26 00:08:42;;;;;;;24.10;11.70;;;;;;;8.12;65.83;98056.05;108953;1248;95855;-73
2023/03/26 00:11:11;;;;;;;24.60;11.20;;;;;;;8.14;65.97;98055.35;109335;1247;111280;-73
2023/03/26 00:13:40;;;;;;;23.90;10.60;;;;;;;8.19;65.88;98053.04;109097;1248;101108;-73
2023/03/26 00:16:06;;;;;;;26.90;12.50;;;;;;;8.22;65.85;98046.10;109094;1248;107222;-73
2023/03/26 00:18:33;;;;;;;24.80;11.10;;;;;;;8.23;66.10;98054.68;109262;1248;95850;-73
2023/03/26 00:21:02;;;;;;;23.00;9.70;;;;;;;8.24;66.03;98063.25;109136;1248;95699;-73
2023/03/26 00:23:30;;;;;;;22.50;9.00;;;;;;;8.25;66.00;98069.84;109199;1248;111332;-75
2023/03/26 00:25:57;;;;;;;22.10;9.20;;;;;;;8.26;66.16;98072.77;109220;1248;101000;-73
2023/03/26 00:28:25;;;;;;;22.40;8.90;;;;;;;8.28;66.18;98078.63;109278;1248;95653;-74
2023/03/26 00:31:00;;;;;;;21.40;8.50;;;;;;;8.29;66.15;98080.14;109342;1248;95602;-73
2023/03/26 00:33:27;;;;;;;24.00;8.80;;;;;;;8.28;66.19;98080.92;109152;1251;95664;-73
2023/03/26 00:35:57;;;;;;;22.20;8.70;;;;;;;8.29;66.17;98077.33;109023;1248;110875;-77
2023/03/26 00:38:26;;;;;;;21.60;9.00;;;;;;;8.30;66.20;98076.52;109135;1248;100163;-73
2023/03/26 00:40:55;;;;;;;17.80;7.90;;;;;;;8.29;66.42;98076.05;109097;1248;107729;-78
2023/03/26 00:43:22;;;;;;;22.00;8.30;;;;;;;8.25;66.59;98078.52;109281;1248;95648;-73
2023/03/26 00:45:53;;;;;;;18.20;6.40;;;;;;;8.16;66.35;98076.70;109315;1247;95693;-73
2023/03/26 00:48:21;;;;;;;17.10;5.90;;;;;;;8.10;66.49;98080.20;109184;1248;110751;-73
2023/03/26 00:51:01;;;;;;;16.50;7.10;;;;;;;8.03;66.46;98082.89;109313;1248;100800;-73
2023/03/26 00:53:27;;;;;;;19.90;7.80;;;;;;;7.98;66.90;98079.20;108956;1254;95660;-74
2023/03/26 00:55:59;;;;;;;18.50;7.10;;;;;;;7.94;66.98;98079.89;109263;1247;95553;-73
2023/03/26 00:58:26;;;;;;;16.00;7.00;;;;;;;7.90;66.73;98078.09;109344;1248;95597;-73
2023/03/26 01:00:56;;;;;;;20.80;7.70;;;;;;;7.86;66.65;98080.31;109340;1251;110985;-73
2023/03/26 01:03:27;;;;;;;19.50;7.50;;;;;;;7.83;66.64;98079.99;108927;1249;100691;-73
2023/03/26 01:06:08;;;;;;;21.60;8.40;;;;;;;7.80;67.31;98088.55;108985;1248;107488;-73
2023/03/26 01:08:37;;;;;;;20.90;7.90;;;;;;;7.73;67.59;98090.64;109080;1248;95626;-73
2023/03/26 01:11:16;;;;;;;19.10;8.10;;;;;;;7.66;67.52;98099.15;109348;1247;95731;-73
2023/03/26 01:13:54;;;;;;;18.50;6.80;;;;;;;7.59;67.69;98103.34;109115;1252;110935;-74
2023/03/26 01:16:30;;;;;;;16.00;6.00;;;;;;;7.53;67.02;98101.31;109169;1248;100913;-74
2023/03/26 01:18:57;;;;;;;13.00;5.20;;;;;;;7.52;66.90;98096.70;109039;1247;108296;-73
2023/03/26 01:21:30;;;;;;;17.20;5.50;;;;;;;7.51;67.05;98092.36;109140;1247;95721;-73
2023/03/26 01:24:05;;;;;;;12.70;5.60;;;;;;;7.52;67.04;98094.73;109311;1248;95618;-73
2023/03/26 01:26:51;;;;;;;15.80;6.40;;;;;;;7.52;67.04;98090.83;109181;1247;111211;-73
2023/03/26 01:29:27;;;;;;;15.20;6.20;;;;;;;7.54;66.99;98088.95;109208;1248;100871;-73
2023/03/26 01:32:15;;;;;;;17.20;6.50;;;;;;;7.55;67.10;98085.48;109221;1248;107364;-73
2023/03/26 01:34:51;;;;;;;15.40;6.40;;;;;;;7.58;66.80;98078.73;109254;1248;95981;-73
2023/03/26 01:38:00;;;;;;;18.50;6.90;;;;;;;7.60;66.73;98082.77;109290;1248;95671;-73
2023/03/26 01:40:42;;;;;;;18.90;7.40;;;;;;;7.58;66.76;98083.67;108669;1256;111436;-73
2023/03/26 01:43:15;;;;;;;18.50;7.00;;;;;;;7.55;66.86;98084.96;108752;1254;101344;-73
2023/03/26 01:45:45;;;;;;;21.70;7.90;;;;;;;7.51;66.64;98084.95;108959;1248;107642;-74
2023/03/26 01:48:12;;;;;;;19.40;7.50;;;;;;;7.49;66.75;98085.94;109224;1247;96680;-73
2023/03/26 01:50:39;;;;;;;19.40;7.90;;;;;;;7.49;66.82;98083.66;109299;1248;95662;-73
2023/03/26 01:53:08;;;;;;;18.80;7.80;;;;;;;7.49;66.91;98085.23;109093;1247;95621;-73
2023/03/26 01:55:55;;;;;;;17.60;7.60;;;;;;;7.50;66.79;98082.37;108969;1251;99252;-73
2023/03/26 01:58:50;;;;;;;20.40;7.90;;;;;;;7.51;66.92;98078.92;109314;1247;106010;-73
2023/03/26 02:01:26;;;;;;;20.40;7.20;;;;;;;7.50;66.97;98079.70;109302;1248;95578;-73
2023/03/26 02:04:01;;;;;;;19.20;7.30;;;;;;;7.49;66.96;98081.00;109327;1247;95747;-73
2023/03/26 02:06:36;;;;;;;18.60;6.40;;;;;;;7.49;66.81;98077.30;109093;1247;111388;-73
2023/03/26 02:09:11;;;;;;;17.80;6.90;;;;;;;7.51;67.06;98076.27;109309;1253;101047;-74
2023/03/26 02:11:40;;;;;;;18.50;6.60;;;;;;;7.52;66.95;98077.63;109126;1247;107794;-73
2023/03/26 02:14:08;;;;;;;14.70;5.90;;;;;;;7.54;67.01;98075.67;108954;1253;95619;-73
2023/03/26 02:16:34;;;;;;;14.40;5.40;;;;;;;7.54;67.04;98074.08;109031;1248;95799;-73
2023/03/26 02:19:01;;;;;;;15.20;5.70;;;;;;;7.54;67.04;98073.34;109327;1247;95580;-73
2023/03/26 02:21:32;;;;;;;13.50;5.70;;;;;;;7.55;67.15;98070.46;109151;1247;95673;-73
2023/03/26 02:24:02;;;;;;;13.10;5.00;;;;;;;7.56;66.99;98069.72;109358;1247;106700;-73
2023/03/26 02:26:32;;;;;;;13.40;5.30;;;;;;;7.55;67.11;98069.27;109286;1248;95684;-73
2023/03/26 02:29:00;;;;;;;15.90;5.50;;;;;;;7.53;67.17;98067.61;108988;1247;95624;-74
2023/03/26 02:31:27;;;;;;;14.40;5.50;;;;;;;7.50;67.02;98064.85;109306;1247;109505;-73
2023/03/26 02:33:55;;;;;;;13.50;5.10;;;;;;;7.46;66.97;98067.48;109068;1247;95618;-73
2023/03/26 02:36:26;;;;;;;15.60;4.80;;;;;;;7.42;67.07;98067.02;109233;1250;107363;-73
2023/03/26 02:38:54;;;;;;;13.10;4.90;;;;;;;7.41;66.97;98066.45;109152;1247;95889;-73
2023/03/26 02:41:20;;;;;;;11.20;4.80;;;;;;;7.37;66.93;98068.98;109317;1247;95665;-77
2023/03/26 02:43:47;;;;;;;14.50;4.50;;;;;;;7.32;66.99;98068.52;109334;1247;95742;-73
2023/03/26 02:46:14;;;;;;;13.00;5.20;;;;;;;7.27;66.77;98068.73;109112;1248;95726;-73
2023/03/26 02:48:42;;;;;;;12.00;4.60;;;;;;;7.22;67.01;98066.63;109192;1247;96551;-73
2023/03/26 02:51:09;;;;;;;14.00;5.20;;;;;;;7.18;66.94;98067.81;109278;1247;95574;-73
2023/03/26 02:53:36;;;;;;;11.70;4.20;;;;;;;7.14;67.06;98068.77;109422;1247;96421;-74
2023/03/26 02:56:03;;;;;;;16.30;4.80;;;;;;;7.12;67.09;98069.80;109400;1247;95662;-74
2023/03/26 02:58:29;;;;;;;14.10;4.40;;;;;;;7.14;67.06;98067.75;109135;1248;95808;-73
2023/03/26 03:00:56;;;;;;;12.70;4.50;;;;;;;7.15;66.99;98065.18;109375;1247;95674;-73
2023/03/26 03:03:25;;;;;;;10.20;4.40;;;;;;;7.18;67.05;98065.17;109356;1247;95680;-73
2023/03/26 03:05:53;;;;;;;10.70;4.20;;;;;;;7.20;67.01;98063.08;109124;1248;111265;-73
2023/03/26 03:08:22;;;;;;;13.10;4.50;;;;;;;7.23;67.07;98062.10;109272;1247;100982;-73
2023/03/26 03:11:10;;;;;;;10.50;4.10;;;;;;;7.27;67.22;98062.90;109349;1247;107787;-73
2023/03/26 03:13:37;;;;;;;10.80;3.90;;;;;;;7.31;67.02;98058.18;109143;1246;95991;-73
2023/03/26 03:16:04;;;;;;;8.80;3.60;;;;;;;7.35;67.02;98053.31;109188;1248;95662;-73
2023/03/26 03:18:30;;;;;;;8.40;3.60;;;;;;;7.38;67.31;98053.40;109335;1247;96004;-73
2023/03/26 03:20:57;;;;;;;10.10;3.60;;;;;;;7.43;67.13;98057.80;109337;1247;95690;-73
2023/03/26 03:23:24;;;;;;;7.50;3.50;;;;;;;7.47;67.30;98058.75;109296;1247;95711;-73
2023/03/26 03:25:51;;;;;;;12.10;3.90;;;;;;;7.50;67.04;98058.48;109393;1247;96450;-73
2023/03/26 03:28:18;;;;;;;9.60;3.50;;;;;;;7.55;67.02;98058.33;109095;1248;111246;-74
2023/03/26 03:30:44;;;;;;;10.30;3.50;;;;;;;7.59;67.24;98059.27;109168;1248;95711;-73
2023/03/26 03:33:12;;;;;;;10.10;3.30;;;;;;;7.61;67.00;98057.54;109332;1247;95654;-73
2023/03/26 03:35:39;;;;;;;8.70;3.10;;;;;;;7.64;67.39;98060.84;109304;1247;95566;-73
2023/03/26 03:38:05;;;;;;;7.60;3.10;;;;;;;7.65;67.20;98060.21;109343;1247;95936;-73
2023/03/26 03:40:32;;;;;;;9.20;3.40;;;;;;;7.66;67.16;98059.09;109356;1247;95795;-73
2023/03/26 03:42:58;;;;;;;8.40;3.50;;;;;;;7.67;67.21;98059.70;109422;1247;95938;-73
2023/03/26 03:45:25;;;;;;;8.70;3.20;;;;;;;7.67;67.31;98060.56;109330;1247;95650;-73
2023/03/26 03:47:52;;;;;;;7.60;3.10;;;;;;;7.68;67.12;98060.98;109401;1246;95996;-74
2023/03/26 03:50:19;;;;;;;5.60;2.80;;;;;;;7.70;67.22;98059.96;109135;1248;95619;-73
2023/03/26 03:52:45;;;;;;;7.90;3.30;;;;;;;7.72;67.14;98059.34;109374;1247;95631;-73
2023/03/26 03:55:12;;;;;;;9.50;3.00;;;;;;;7.72;67.25;98058.61;109331;1247;95625;-74
2023/03/26 03:57:39;;;;;;;10.20;3.20;;;;;;;7.73;67.22;98061.03;109404;1247;95610;-73
2023/03/26 04:00:07;;;;;;;5.70;3.10;;;;;;;7.73;67.29;98057.10;109362;1247;110920;-73
2023/03/26 04:02:34;;;;;;;7.70;3.00;;;;;;;7.73;67.18;98061.03;109401;1247;100089;-73
2023/03/26 04:05:03;;;;;;;6.30;2.80;;;;;;;7.73;67.15;98060.64;109340;1247;95577;-77
2023/03/26 04:07:31;;;;;;;6.40;2.90;;;;;;;7.74;67.20;98059.53;109331;1247;95662;-73
2023/03/26 04:10:04;;;;;;;10.00;2.70;;;;;;;7.76;67.21;98057.95;109185;1248;96032;-74
2023/03/26 04:12:31;;;;;;;8.10;2.70;;;;;;;7.78;67.28;98059.77;109205;1247;110736;-73
2023/03/26 04:14:59;;;;;;;7.60;2.50;;;;;;;7.78;67.23;98065.38;109388;1247;95621;-73
2023/03/26 04:17:26;;;;;;;4.70;2.40;;;;;;;7.79;67.14;98061.81;108991;1247;107213;-73
2023/03/26 04:19:53;;;;;;;6.20;2.40;;;;;;;7.79;67.23;98064.60;109311;1247;95624;-73
2023/03/26 04:22:20;;;;;;;4.60;2.40;;;;;;;7.79;67.20;98064.41;109396;1246;95612;-74
2023/03/26 04:24:49;;;;;;;5.90;2.40;;;;;;;7.79;67.23;98061.08;109178;1247;96028;-75
2023/03/26 04:27:19;;;;;;;7.10;2.70;;;;;;;7.79;67.14;98063.02;109369;1247;100393;-78
2023/03/26 04:29:48;;;;;;;5.40;2.10;;;;;;;7.79;67.15;98060.52;109363;1247;107577;-73
2023/03/26 04:32:25;;;;;;;5.40;2.10;;;;;;;7.80;67.14;98058.90;109282;1247;95670;-79
2023/03/26 04:34:52;;;;;;;5.40;2.30;;;;;;;7.80;67.15;98056.95;109246;1247;96041;-74
2023/03/26 04:37:31;;;;;;;6.20;2.10;;;;;;;7.81;67.21;98055.46;109097;1247;95663;-74
2023/03/26 04:39:58;;;;;;;5.60;1.70;;;;;;;7.81;67.11;98054.36;109434;1247;101687;-73
2023/03/26 04:42:24;;;;;;;5.30;2.00;;;;;;;7.82;67.09;98055.77;109318;1247;95647;-74
2023/03/26 04:44:51;;;;;;;6.80;1.90;;;;;;;7.83;67.23;98057.63;109048;1250;95699;-74
2023/03/26 04:47:17;;;;;;;6.60;2.30;;;;;;;7.82;67.20;98058.92;109375;1247;95869;-74
2023/03/26 04:49:47;;;;;;;5.60;2.10;;;;;;;7.81;67.08;98062.32;109399;1248;95997;-73
2023/03/26 04:52:14;;;;;;;5.20;2.10;;;;;;;7.80;66.95;98064.33;109342;1247;106965;-73
2023/03/26 04:54:44;;;;;;;4.60;2.10;;;;;;;7.79;67.20;98059.11;109168;1248;95618;-73
2023/03/26 04:57:24;;;;;;;3.70;1.80;;;;;;;7.80;67.16;98060.97;109382;1246;95541;-73
2023/03/26 04:59:51;;;;;;;8.00;3.10;;;;;;;7.80;67.18;98063.29;109299;1246;110719;-73
2023/03/26 05:02:19;;;;;;;9.30;3.50;;;;;;;7.79;67.07;98063.33;109252;1247;95987;-73
2023/03/26 05:04:45;;;;;;;10.80;4.60;;;;;;;7.79;67.01;98060.68;108958;1247;95772;-73
2023/03/26 05:07:16;;;;;;;7.70;3.30;;;;;;;7.82;67.22;98064.73;109224;1247;95621;-73
2023/03/26 05:09:43;;;;;;;5.50;2.90;;;;;;;7.83;67.14;98064.47;109293;1247;95607;-73
2023/03/26 05:12:09;;;;;;;6.50;3.10;;;;;;;7.82;67.13;98064.76;109349;1246;96134;-73
2023/03/26 05:14:36;;;;;;;4.70;2.50;;;;;;;7.82;67.13;98061.53;109319;1246;95615;-73
2023/03/26 05:17:09;;;;;;;3.90;2.50;;;;;;;7.83;67.12;98053.71;109329;1247;95625;-73
2023/03/26 05:19:37;;;;;;;4.30;2.30;;;;;;;7.81;67.05;98058.45;109335;1247;95945;-74
2023/03/26 05:22:04;;;;;;;4.50;2.10;;;;;;;7.78;67.20;98058.13;109160;1248;95639;-73
2023/03/26 05:24:30;;;;;;;5.60;2.30;;;;;;;7.79;67.26;98058.27;109353;1246;95786;-76
2023/03/26 05:26:57;;;;;;;5.00;3.10;;;;;;;7.79;67.13;98057.73;109386;1246;96409;-73
2023/03/26 05:29:24;;;;;;;3.50;2.70;;;;;;;7.78;67.20;98064.48;109331;1247;95974;-75
2023/03/26 05:31:50;;;;;;;4.90;2.30;;;;;;;7.77;67.05;98060.20;109365;1247;95730;-73
2023/03/26 05:34:19;;;;;;;3.30;2.10;;;;;;;7.73;67.09;98063.84;108999;1248;95728;-74
2023/03/26 05:36:45;;;;;;;5.50;2.30;;;;;;;7.67;67.02;98062.34;109385;1246;100939;-73
2023/03/26 05:39:13;;;;;;;5.10;2.50;;;;;;;7.63;67.09;98063.71;109332;1247;95710;-74
2023/03/26 05:41:40;;;;;;;7.60;3.10;;;;;;;7.59;67.12;98061.88;109402;1247;95718;-73
2023/03/26 05:44:07;;;;;;;7.70;2.90;;;;;;;7.58;67.07;98064.25;109357;1247;95927;-74
2023/03/26 05:46:34;;;;;;;4.80;1.90;;;;;;;7.59;67.14;98065.58;109398;1247;96035;-73
2023/03/26 05:49:00;;;;;;;3.50;1.90;;;;;;;7.62;67.14;98061.34;109333;1247;96894;-73
2023/03/26 05:51:26;;;;;;;5.20;1.80;;;;;;;7.65;67.11;98062.36;109251;1247;95821;-73
2023/03/26 05:53:53;;;;;;;5.00;2.10;;;;;;;7.68;67.14;98063.85;109118;1247;96099;-73
2023/03/26 05:56:20;;;;;;;2.90;1.90;;;;;;;7.72;67.15;98066.35;109344;1246;96008;-73
2023/03/26 05:58:47;;;;;;;5.90;2.00;;;;;;;7.77;67.28;98063.90;109310;1247;96086;-73
2023/03/26 06:01:17;;;;;;;5.00;2.10;;;;;;;7.79;67.26;98066.39;109293;1246;96027;-73
2023/03/26 06:03:44;;;;;;;5.80;2.50;;;;;;;7.82;67.24;98071.05;109300;1247;95565;-73
2023/03/26 06:06:16;;;;;;;6.40;2.50;;;;;;;7.84;66.99;98073.20;109187;1248;95832;-73
2023/03/26 06:08:48;;;;;;;4.00;2.20;;;;;;;7.92;67.31;98072.98;109144;1248;110792;-73
2023/03/26 06:11:30;;;;;;;3.70;2.20;;;;;;;8.08;67.46;98068.52;109046;1247;101253;-73
2023/03/26 06:13:58;;;;;;;7.80;2.50;;;;;;;8.27;67.39;98071.27;109338;1247;107675;-73
2023/03/26 06:16:25;;;;;;;8.20;2.40;;;;;;;8.47;67.59;98072.77;109335;1247;95622;-73
2023/03/26 06:18:55;;;;;;;6.10;2.60;;;;;;;8.62;67.45;98076.17;109378;1246;95975;-74
2023/03/26 06:21:26;;;;;;;7.60;2.90;;;;;;;8.79;67.58;98070.06;109240;1247;111273;-73
2023/03/26 06:23:54;;;;;;;6.30;2.60;;;;;;;8.96;67.49;98073.77;109335;1247;100896;-73
2023/03/26 06:26:21;;;;;;;9.00;2.90;;;;;;;9.10;67.41;98079.23;108966;1247;106303;-73
2023/03/26 06:28:47;;;;;;;6.60;2.80;;;;;;;9.19;67.45;98077.73;109119;1248;95609;-73
2023/03/26 06:31:16;;;;;;;10.30;3.10;;;;;;;9.25;67.55;98076.38;109345;1247;95610;-73
2023/03/26 06:33:42;;;;;;;7.90;3.30;;;;;;;9.30;67.49;98078.60;109350;1246;95641;-73
2023/03/26 06:36:09;;;;;;;9.40;2.90;;;;;;;9.33;67.39;98075.89;109286;1247;95801;-73
2023/03/26 06:38:36;;;;;;;7.80;2.70;;;;;;;9.36;67.28;98074.23;109384;1246;95681;-74
2023/03/26 06:41:05;;;;;;;9.60;3.30;;;;;;;9.38;67.30;98079.36;109156;1248;95779;-74
2023/03/26 06:43:32;;;;;;;8.70;3.50;;;;;;;9.40;67.34;98076.38;109045;1248;95663;-73
2023/03/26 06:46:00;;;;;;;6.90;2.50;;;;;;;9.44;67.26;98076.61;109281;1247;95581;-75
2023/03/26 06:48:27;;;;;;;6.20;2.40;;;;;;;9.48;67.34;98074.33;109205;1248;95726;-74
2023/03/26 06:50:54;;;;;;;6.30;2.60;;;;;;;9.54;67.25;98074.52;108989;1247;95585;-74
2023/03/26 06:53:22;;;;;;;7.70;2.90;;;;;;;9.60;67.24;98075.40;109106;1248;95637;-75
2023/03/26 06:55:48;;;;;;;6.50;2.60;;;;;;;9.63;67.16;98072.30;109084;1247;95948;-75
2023/03/26 06:58:15;;;;;;;4.40;2.50;;;;;;;9.65;67.07;98065.40;109065;1248;95704;-79
2023/03/26 07:00:42;;;;;;;7.00;2.90;;;;;;;9.66;67.13;98067.80;109072;1248;96041;-76
2023/03/26 07:03:10;;;;;;;6.80;2.70;;;;;;;9.66;67.04;98067.80;109153;1247;95985;-75
2023/03/26 07:05:39;;;;;;;5.90;2.80;;;;;;;9.69;67.11;98070.90;108783;1248;95736;-77
2023/03/26 07:08:05;;;;;;;8.30;3.10;;;;;;;9.78;67.10;98071.27;109054;1247;111330;-74
2023/03/26 07:10:32;;;;;;;6.90;2.90;;;;;;;9.83;67.04;98066.40;109062;1248;95966;-73
2023/03/26 07:12:58;;;;;;;7.40;2.70;;;;;;;9.89;67.14;98067.88;108902;1247;96048;-74
2023/03/26 07:15:27;;;;;;;6.30;2.90;;;;;;;9.94;67.03;98071.52;109130;1247;109113;-74
2023/03/26 07:17:55;;;;;;;6.60;2.40;;;;;;;10.01;67.14;98074.96;109099;1248;111586;-73
2023/03/26 07:20:22;;;;;;;7.00;2.60;;;;;;;10.12;67.06;98065.80;109084;1248;100911;-73
2023/03/26 07:22:49;;;;;;;6.60;2.50;;;;;;;10.33;67.15;98061.25;109087;1248;95908;-73
2023/03/26 07:25:17;;;;;;;5.30;2.20;;;;;;;10.50;66.90;98061.74;109165;1247;95675;-74
2023/03/26 07:28:04;;;;;;;7.40;2.20;;;;;;;10.55;66.54;98063.60;109160;1247;95718;-73
2023/03/26 07:30:53;;;;;;;7.60;2.30;;;;;;;10.59;66.63;98065.38;109117;1248;111316;-73
2023/03/26 07:33:36;;;;;;;4.00;1.90;;;;;;;10.66;66.64;98062.10;109151;1248;100318;-73
2023/03/26 07:36:24;;;;;;;10.00;2.80;;;;;;;10.71;66.77;98053.96;109096;1248;107655;-73
2023/03/26 07:38:53;;;;;;;6.00;2.10;;;;;;;10.80;66.80;98056.76;109190;1248;96028;-73
2023/03/26 07:41:49;;;;;;;4.60;2.20;;;;;;;10.87;66.68;98055.02;109191;1247;96304;-73
2023/03/26 07:44:22;;;;;;;6.40;2.10;;;;;;;10.93;66.73;98058.84;109081;1248;110782;-73
2023/03/26 07:46:52;;;;;;;;;;;;;;;11.00;66.80;98062.95;109117;1248;101280;-73
2023/03/26 07:49:19;;;;;;;6.00;2.10;;;;;;;11.01;66.58;98062.13;109122;1246;107722;-73
2023/03/26 07:51:47;;;;;;;4.30;2.10;;;;;;;11.01;66.54;98061.95;108955;1248;95899;-76
2023/03/26 07:54:15;;;;;;;7.70;2.80;;;;;;;11.06;66.65;98057.30;108918;1247;95632;-74
2023/03/26 07:56:50;;;;;;;4.40;1.60;;;;;;;11.05;66.55;98052.77;109050;1248;110798;-73
2023/03/26 07:59:28;;;;;;;5.90;2.50;;;;;;;11.07;66.44;98054.40;108797;1248;100645;-74
2023/03/26 08:02:07;;;;;;;5.40;2.10;;;;;;;11.14;66.28;98053.20;109083;1249;107600;-73
2023/03/26 08:04:43;;;;;;;7.80;2.30;;;;;;;11.25;66.37;98051.67;109143;1248;95880;-73
2023/03/26 08:07:25;;;;;;;4.50;2.00;;;;;;;11.37;66.06;98058.92;109133;1248;95852;-73
2023/03/26 08:10:13;;;;;;;6.40;2.30;;;;;;;11.48;66.16;98057.55;108893;1249;110769;-73
2023/03/26 08:12:52;;;;;;;3.90;1.90;;;;;;;11.62;66.05;98055.87;109197;1248;101453;-73
2023/03/26 08:15:28;;;;;;;2.10;1.50;;;;;;;11.71;66.05;98052.90;109257;1248;107145;-73
2023/03/26 08:18:05;;;;;;;6.40;1.90;;;;;;;11.65;65.88;98054.16;109299;1247;95640;-75
2023/03/26 08:20:42;;;;;;;6.00;2.20;;;;;;;11.55;64.46;98056.22;109186;1246;96531;-74
2023/03/26 08:23:34;;;;;;;5.40;2.00;;;;;;;11.41;65.32;98051.80;109198;1248;109717;-77
2023/03/26 08:26:26;;;;;;;6.40;2.50;;;;;;;11.33;65.57;98050.98;109251;1248;100883;-71
2023/03/26 08:28:58;;;;;;;7.60;2.40;;;;;;;11.28;65.41;98049.40;109009;1247;107263;-72
2023/03/26 08:31:33;;;;;;;7.40;2.40;;;;;;;11.24;65.42;98048.39;109184;1248;95633;-73
2023/03/26 08:34:00;;;;;;;11.00;2.70;;;;;;;11.14;65.46;98047.11;109369;1247;95568;-72
2023/03/26 08:36:28;;;;;;;6.50;2.20;;;;;;;11.08;65.49;98048.63;109102;1247;95675;-73
2023/03/26 08:38:58;;;;;;;7.40;3.10;;;;;;;11.11;65.39;98046.86;109205;1248;95763;-72
2023/03/26 08:41:38;;;;;;;6.20;2.10;;;;;;;11.13;64.83;98053.79;108878;1248;107707;-73
2023/03/26 08:44:26;;;;;;;8.10;2.80;;;;;;;11.05;65.05;98050.84;109272;1248;95650;-76
2023/03/26 08:47:23;;;;;;;11.10;4.00;;;;;;;10.99;65.11;98058.44;109259;1248;95673;-74
2023/03/26 08:50:09;;;;;;;10.70;3.60;;;;;;;10.90;65.01;98056.94;109269;1248;111341;-73
2023/03/26 08:53:07;;;;;;;8.80;2.80;;;;;;;10.74;64.07;98056.75;109258;1248;100710;-72
2023/03/26 08:55:42;;;;;;;11.60;3.30;;;;;;;10.64;64.61;98056.01;109262;1246;107455;-74
2023/03/26 08:58:46;;;;;;;11.10;3.70;;;;;;;10.76;64.98;98051.05;109137;1248;152534;-72
2023/03/26 09:01:31;;;;;;;12.10;4.30;;;;;;;11.03;65.14;98049.95;109321;1248;95542;-72
2023/03/26 09:04:38;;;;;;;10.20;3.30;;;;;;;11.28;65.28;98046.40;109299;1248;111025;-75
2023/03/26 09:07:26;;;;;;;10.60;3.30;;;;;;;11.54;65.27;98046.88;108955;1248;100560;-73
2023/03/26 09:10:11;;;;;;;9.70;3.60;;;;;;;11.67;65.08;98048.19;109230;1248;108755;-72
2023/03/26 09:12:53;;;;;;;6.60;3.00;;;;;;;11.65;64.68;98047.83;109224;1248;95630;-72
2023/03/26 09:15:39;;;;;;;8.80;3.10;;;;;;;11.54;64.67;98045.81;109282;1247;95986;-73
2023/03/26 09:18:23;;;;;;;9.20;3.10;;;;;;;11.43;64.51;98046.30;109373;1247;110896;-72
2023/03/26 09:21:30;;;;;;;10.60;3.90;;;;;;;11.35;64.46;98045.59;109146;1247;100191;-74
2023/03/26 09:24:08;;;;;;;16.80;6.60;;;;;;;11.26;64.49;98043.40;109158;1247;106179;-73
2023/03/26 09:27:07;;;;;;;11.70;4.90;;;;;;;11.29;64.09;98040.46;109223;1246;95868;-75
2023/03/26 09:29:52;;;;;;;9.50;4.00;;;;;;;11.23;64.00;98042.12;108959;1248;95702;-73
2023/03/26 09:32:26;;;;;;;6.40;3.20;;;;;;;11.25;64.12;98037.83;109111;1248;111798;-75
2023/03/26 09:35:27;;;;;;;14.00;5.00;;;;;;;11.22;63.97;98041.41;109136;1248;101143;-73
2023/03/26 09:38:25;;;;;;;12.30;4.50;;;;;;;11.16;63.36;98036.50;109040;1248;107899;-73
2023/03/26 09:41:11;;;;;;;16.00;5.70;;;;;;;11.13;63.57;98038.94;109112;1248;95890;-74
2023/03/26 09:43:59;;;;;;;21.70;7.40;;;;;;;11.09;62.56;98042.69;109116;1247;95905;-77
2023/03/26 09:46:38;;;;;;;22.40;10.20;;;;;;;10.92;62.48;98041.88;109136;1247;111275;-74
2023/03/26 09:49:28;;;;;;;40.30;17.40;;;;;;;10.79;62.68;98040.38;109122;1248;100209;-73
2023/03/26 09:52:21;;;;;;;17.20;5.60;;;;;;;10.79;63.42;98037.91;108882;1248;108195;-73
2023/03/26 09:54:47;;;;;;;17.60;6.80;;;;;;;10.88;63.51;98035.80;109118;1248;95914;-73
2023/03/26 09:57:56;;;;;;;14.40;4.30;;;;;;;11.04;63.38;98024.98;109134;1247;95596;-76
2023/03/26 10:01:04;;;;;;;10.30;3.50;;;;;;;11.33;63.61;98023.62;109005;1248;110374;-73
2023/03/26 10:03:37;;;;;;;11.00;4.30;;;;;;;11.59;63.33;98019.62;109046;1248;100930;-74
2023/03/26 10:06:15;;;;;;;11.90;4.10;;;;;;;11.78;63.64;98012.00;109341;1246;107311;-73
2023/03/26 10:09:13;;;;;;;14.50;5.50;;;;;;;12.00;63.54;98006.90;109320;1247;95558;-73
2023/03/26 10:11:55;;;;;;;15.80;6.20;;;;;;;12.14;62.81;98004.48;109292;1248;95885;-73
2023/03/26 10:14:25;;;;;;;11.50;4.20;;;;;;;12.21;63.37;98003.45;109184;1249;111290;-73
2023/03/26 10:17:14;;;;;;;15.00;5.70;;;;;;;12.30;62.79;98000.02;109227;1248;100884;-73
2023/03/26 10:20:17;;;;;;;7.20;2.70;;;;;;;12.23;62.10;98000.27;109242;1248;107220;-72
2023/03/26 10:23:12;;;;;;;10.10;3.90;;;;;;;12.17;62.68;97998.94;109280;1247;95680;-73
2023/03/26 10:25:56;;;;;;;16.00;6.80;;;;;;;12.06;62.66;97998.67;109276;1247;95636;-73
2023/03/26 10:29:19;;;;;;;9.20;3.60;;;;;;;11.92;62.37;98003.06;109235;1248;111313;-73
2023/03/26 10:31:59;;;;;;;5.80;2.90;;;;;;;11.80;62.69;97993.27;108691;1254;101598;-77
2023/03/26 10:34:50;;;;;;;8.10;3.20;;;;;;;11.80;62.86;97991.75;108652;1254;107800;-74
2023/03/26 10:37:55;;;;;;;10.40;3.40;;;;;;;11.84;62.70;97995.95;108987;1249;95698;-74
2023/03/26 10:40:31;;;;;;;11.40;3.30;;;;;;;11.84;62.84;97996.96;109196;1248;95669;-74
2023/03/26 10:43:14;;;;;;;10.70;3.50;;;;;;;11.94;62.82;97990.80;109339;1247;111185;-74
2023/03/26 10:46:17;;;;;;;8.60;2.90;;;;;;;12.16;62.98;97989.90;109276;1247;100963;-73
2023/03/26 10:48:52;;;;;;;9.10;2.90;;;;;;;12.43;62.86;97984.64;109095;1247;107337;-73
2023/03/26 10:51:40;;;;;;;8.40;3.00;;;;;;;12.60;62.94;97986.94;109212;1248;95605;-73
2023/03/26 10:54:25;;;;;;;9.20;2.90;;;;;;;12.71;62.76;97985.29;109298;1247;95587;-73
2023/03/26 10:56:54;;;;;;;9.70;2.60;;;;;;;12.74;62.50;97983.08;109333;1248;110959;-77
2023/03/26 10:59:21;;;;;;;12.30;3.10;;;;;;;12.71;62.40;97982.52;109050;1248;100128;-73
2023/03/26 11:01:49;;;;;;;9.60;3.00;;;;;;;12.66;62.46;97982.92;108961;1251;107270;-74
2023/03/26 11:04:43;;;;;;;8.80;3.10;;;;;;;12.58;62.39;97982.88;109149;1250;95613;-74
2023/03/26 11:07:15;;;;;;;9.40;3.50;;;;;;;12.48;62.38;97980.65;109048;1248;95605;-74
2023/03/26 11:10:07;;;;;;;9.10;3.50;;;;;;;12.42;62.25;97980.36;109308;1247;111741;-73
2023/03/26 11:13:04;;;;;;;9.60;3.80;;;;;;;12.47;62.18;97977.80;109273;1247;100242;-76
2023/03/26 11:15:52;;;;;;;12.30;4.40;;;;;;;12.60;62.32;97977.02;109311;1247;106338;-73
2023/03/26 11:18:44;;;;;;;11.80;3.90;;;;;;;12.72;62.10;97976.46;109254;1247;95707;-75
2023/03/26 11:21:21;;;;;;;11.20;3.70;;;;;;;12.86;62.09;97976.37;109269;1248;95646;-74
2023/03/26 11:23:59;;;;;;;13.60;4.20;;;;;;;12.95;61.91;97967.88;109243;1248;111285;-73
2023/03/26 11:26:45;;;;;;;6.50;2.70;;;;;;;13.03;61.92;97966.75;109273;1248;100903;-73
2023/03/26 11:29:27;;;;;;;8.10;2.40;;;;;;;13.00;61.58;97970.36;109212;1248;107661;-76
2023/03/26 11:32:05;;;;;;;7.20;3.00;;;;;;;12.87;60.79;97967.77;109181;1248;96146;-73
2023/03/26 11:35:07;;;;;;;5.60;2.50;;;;;;;12.71;61.20;97967.30;109142;1248;95746;-77
2023/03/26 11:37:40;;;;;;;10.30;3.30;;;;;;;12.59;61.06;97968.73;109220;1248;111547;-74
2023/03/26 11:40:23;;;;;;;11.20;3.30;;;;;;;12.49;61.07;97964.52;109263;1247;100940;-73
2023/03/26 11:42:55;;;;;;;9.10;3.00;;;;;;;12.47;60.31;97958.70;109204;1247;107252;-77
2023/03/26 11:45:26;;;;;;;13.00;3.70;;;;;;;12.57;60.90;97956.50;108959;1253;95912;-74
2023/03/26 11:48:03;;;;;;;13.00;4.20;;;;;;;12.71;61.11;97954.39;108932;1248;95726;-74
2023/03/26 11:50:34;;;;;;;11.40;2.90;;;;;;;12.83;61.04;97951.64;109005;1248;111340;-73
2023/03/26 11:53:16;;;;;;;6.50;2.70;;;;;;;12.85;60.98;97950.15;109129;1248;100586;-72
2023/03/26 11:55:50;;;;;;;8.30;2.60;;;;;;;12.82;60.54;97951.90;108973;1247;107671;-72
2023/03/26 11:58:46;;;;;;;6.00;2.40;;;;;;;12.76;60.12;97951.77;109137;1249;95703;-77